createdAt,value
2019-03-08T00:00:19.825Z,4.90
2019-03-08T00:02:47.251Z,4.90
2019-03-08T00:05:14.033Z,4.90
2019-03-08T00:07:40.858Z,4.90
2019-03-08T00:10:07.762Z,4.90
2019-03-08T00:12:34.581Z,5.00
2019-03-08T00:15:01.365Z,5.10
2019-03-08T00:17:28.247Z,5.10
2019-03-08T00:19:55.037Z,5.10
2019-03-08T00:22:21.873Z,5.00
2019-03-08T00:24:48.694Z,5.00
2019-03-08T00:27:15.482Z,5.00
2019-03-08T00:29:42.309Z,4.90
2019-03-08T00:32:09.093Z,5.00
2019-03-08T00:34:35.930Z,5.10
2019-03-08T00:37:02.757Z,5.10
2019-03-08T00:39:30.046Z,5.00
2019-03-08T00:41:56.874Z,5.10
2019-03-08T00:44:23.697Z,5.10
2019-03-08T00:46:50.501Z,5.10
2019-03-08T00:49:17.328Z,5.00
2019-03-08T00:51:44.122Z,5.00
2019-03-08T00:54:10.954Z,5.00
2019-03-08T00:56:39.630Z,5.00
2019-03-08T00:59:06.374Z,5.00
2019-03-08T01:01:33.197Z,4.90
2019-03-08T01:03:59.982Z,4.90
2019-03-08T01:06:26.810Z,4.90
2019-03-08T01:08:53.598Z,5.00
2019-03-08T01:11:20.434Z,5.00
2019-03-08T01:13:47.275Z,5.10
2019-03-08T01:16:14.054Z,5.20
2019-03-08T01:18:40.919Z,5.20
2019-03-08T01:21:07.730Z,5.20
2019-03-08T01:23:34.550Z,5.20
2019-03-08T01:26:01.377Z,5.20
2019-03-08T01:28:28.277Z,5.20
2019-03-08T01:30:55.097Z,5.20
2019-03-08T01:33:21.890Z,5.20
2019-03-08T01:35:48.722Z,5.40
2019-03-08T01:38:15.558Z,5.40
2019-03-08T01:40:42.346Z,5.50
2019-03-08T01:43:09.378Z,5.50
2019-03-08T01:45:36.203Z,5.50
2019-03-08T01:48:03.589Z,5.60
2019-03-08T01:50:30.422Z,5.50
2019-03-08T01:52:57.326Z,5.40
2019-03-08T01:55:24.161Z,5.40
2019-03-08T01:57:50.946Z,5.40
2019-03-08T02:00:19.382Z,5.50
2019-03-08T02:02:46.345Z,5.50
2019-03-08T02:05:13.802Z,5.60
2019-03-08T02:07:40.633Z,5.80
2019-03-08T02:10:10.358Z,5.80
2019-03-08T02:12:37.145Z,5.80
2019-03-08T02:15:06.978Z,5.80
2019-03-08T02:17:33.826Z,5.90
2019-03-08T02:20:00.849Z,5.90
2019-03-08T02:22:27.674Z,5.90
2019-03-08T02:24:54.496Z,6.00
2019-03-08T02:27:21.287Z,6.00
2019-03-08T02:29:48.114Z,6.00
2019-03-08T02:32:14.952Z,6.00
2019-03-08T02:34:41.737Z,6.00
2019-03-08T02:37:08.563Z,5.90
2019-03-08T02:39:35.685Z,5.80
2019-03-08T02:42:02.473Z,5.60
2019-03-08T02:44:29.302Z,5.50
2019-03-08T02:46:56.621Z,5.40
2019-03-08T02:49:23.410Z,5.40
2019-03-08T02:51:50.241Z,5.30
2019-03-08T02:54:17.069Z,5.20
2019-03-08T02:56:43.858Z,5.20
2019-03-08T02:59:10.685Z,5.20
2019-03-08T03:01:37.519Z,5.20
2019-03-08T03:04:04.344Z,5.30
2019-03-08T03:06:31.133Z,5.40
2019-03-08T03:08:57.935Z,5.40
2019-03-08T03:11:24.762Z,5.40
2019-03-08T03:13:51.582Z,5.40
2019-03-08T03:16:18.377Z,5.40
2019-03-08T03:18:45.258Z,5.40
2019-03-08T03:21:12.042Z,5.50
2019-03-08T03:23:38.865Z,5.40
2019-03-08T03:26:05.701Z,5.40
2019-03-08T03:28:32.499Z,5.30
2019-03-08T03:30:59.319Z,5.40
2019-03-08T03:33:26.128Z,5.40
2019-03-08T03:35:52.950Z,5.50
2019-03-08T03:38:19.742Z,5.70
2019-03-08T03:40:46.569Z,5.70
2019-03-08T03:43:13.361Z,5.70
2019-03-08T03:45:40.194Z,5.70
2019-03-08T03:48:07.018Z,5.70
2019-03-08T03:50:33.814Z,5.70
2019-03-08T03:53:00.636Z,5.80
2019-03-08T03:55:27.466Z,5.80
2019-03-08T03:57:54.288Z,5.80
2019-03-08T04:00:22.618Z,5.80
2019-03-08T04:02:49.404Z,5.80
2019-03-08T04:05:16.238Z,5.70
2019-03-08T04:07:43.018Z,5.70
2019-03-08T04:10:12.167Z,5.80
2019-03-08T04:12:38.989Z,5.80
2019-03-08T04:15:09.394Z,5.70
2019-03-08T04:17:36.213Z,5.70
2019-03-08T04:20:06.621Z,5.60
2019-03-08T04:22:33.440Z,5.60
2019-03-08T04:25:00.303Z,5.60
2019-03-08T04:27:27.170Z,5.50
2019-03-08T04:29:53.993Z,5.40
2019-03-08T04:32:20.786Z,5.40
2019-03-08T04:34:47.610Z,5.40
2019-03-08T04:37:14.598Z,5.30
2019-03-08T04:39:41.425Z,5.20
2019-03-08T04:42:08.213Z,5.10
2019-03-08T04:44:35.037Z,5.10
2019-03-08T04:47:01.838Z,5.00
2019-03-08T04:49:28.621Z,5.00
2019-03-08T04:51:55.444Z,4.90
2019-03-08T04:54:22.538Z,4.90
2019-03-08T04:56:49.361Z,4.90
2019-03-08T04:59:16.149Z,4.80
2019-03-08T05:01:42.981Z,4.90
2019-03-08T05:04:09.773Z,4.90
2019-03-08T05:06:36.598Z,5.00
2019-03-08T05:09:04.435Z,5.00
2019-03-08T05:11:31.317Z,5.00
2019-03-08T05:13:58.149Z,5.00
2019-03-08T05:16:24.945Z,5.00
2019-03-08T05:18:51.770Z,5.00
2019-03-08T05:21:18.594Z,5.10
2019-03-08T05:23:45.436Z,5.10
2019-03-08T05:26:12.259Z,5.20
2019-03-08T05:28:39.855Z,5.20
2019-03-08T05:31:06.673Z,5.20
2019-03-08T05:33:33.498Z,5.20
2019-03-08T05:36:00.286Z,5.30
2019-03-08T05:38:27.119Z,5.30
2019-03-08T05:40:53.914Z,5.40
2019-03-08T05:43:20.742Z,5.40
2019-03-08T05:45:47.843Z,5.40
2019-03-08T05:48:14.673Z,5.50
2019-03-08T05:50:41.494Z,5.50
2019-03-08T05:53:08.302Z,5.60
2019-03-08T05:55:35.530Z,5.80
2019-03-08T05:58:02.330Z,6.00
2019-03-08T06:00:35.584Z,6.10
2019-03-08T06:03:02.995Z,6.10
2019-03-08T06:05:29.785Z,6.20
2019-03-08T06:07:56.608Z,6.30
2019-03-08T06:10:31.777Z,6.40
2019-03-08T06:12:59.914Z,6.40
2019-03-08T06:15:26.701Z,6.40
2019-03-08T06:17:53.934Z,6.50
2019-03-08T06:20:20.769Z,6.60
2019-03-08T06:22:47.596Z,6.60
2019-03-08T06:25:14.423Z,6.50
2019-03-08T06:27:41.217Z,6.60
2019-03-08T06:30:12.411Z,6.60
2019-03-08T06:32:39.202Z,6.70
2019-03-08T06:35:07.142Z,6.60
2019-03-08T06:37:35.385Z,6.70
2019-03-08T06:40:02.978Z,6.90
2019-03-08T06:42:29.802Z,7.10
2019-03-08T06:44:56.639Z,7.30
2019-03-08T06:47:23.413Z,7.40
2019-03-08T06:49:51.263Z,7.60
2019-03-08T06:52:18.297Z,7.80
2019-03-08T06:54:45.090Z,8.00
2019-03-08T06:57:11.922Z,8.20
2019-03-08T06:59:40.545Z,8.50
2019-03-08T07:02:07.335Z,8.50
2019-03-08T07:04:34.184Z,8.60
2019-03-08T07:07:01.001Z,8.70
2019-03-08T07:09:27.994Z,8.60
2019-03-08T07:11:54.818Z,8.40
2019-03-08T07:14:21.645Z,8.20
2019-03-08T07:16:49.530Z,8.30
2019-03-08T07:19:16.358Z,8.40
2019-03-08T07:21:45.030Z,8.30
2019-03-08T07:24:19.445Z,8.10
2019-03-08T07:26:56.914Z,7.90
2019-03-08T07:29:31.097Z,7.80
2019-03-08T07:31:59.730Z,7.80
2019-03-08T07:34:28.339Z,7.80
2019-03-08T07:36:56.973Z,7.90
2019-03-08T07:39:34.746Z,8.30
2019-03-08T07:42:21.634Z,8.70
2019-03-08T07:45:02.373Z,8.70
2019-03-08T07:47:30.997Z,8.80
2019-03-08T07:50:00.567Z,8.80
2019-03-08T07:52:31.070Z,8.70
2019-03-08T07:54:59.700Z,8.70
2019-03-08T07:57:37.225Z,8.60
2019-03-08T08:00:09.179Z,8.70
2019-03-08T08:02:44.085Z,8.70
2019-03-08T08:05:12.820Z,8.80
2019-03-08T08:07:47.018Z,8.80
2019-03-08T08:10:21.852Z,8.80
2019-03-08T08:12:56.614Z,8.80
2019-03-08T08:15:28.172Z,8.70
2019-03-08T08:17:59.734Z,8.70
2019-03-08T08:20:28.370Z,8.70
2019-03-08T08:22:57.045Z,8.70
2019-03-08T08:25:25.643Z,8.50
2019-03-08T08:28:12.798Z,8.50
2019-03-08T08:30:59.770Z,8.80
2019-03-08T08:33:37.440Z,8.90
2019-03-08T08:36:06.042Z,9.00
2019-03-08T08:38:53.040Z,9.40
2019-03-08T08:41:30.538Z,9.70
2019-03-08T08:44:05.346Z,9.70
2019-03-08T08:46:42.833Z,9.40
2019-03-08T08:49:14.081Z,9.30
2019-03-08T08:51:48.219Z,9.00
2019-03-08T08:54:16.849Z,8.90
2019-03-08T08:56:45.489Z,8.80
2019-03-08T08:59:23.009Z,8.90
2019-03-08T09:02:00.205Z,9.00
2019-03-08T09:04:31.622Z,8.80
2019-03-08T09:07:03.013Z,8.70
2019-03-08T09:09:34.653Z,9.00
2019-03-08T09:12:03.245Z,9.30
2019-03-08T09:14:40.561Z,9.40
2019-03-08T09:17:09.198Z,9.30
2019-03-08T09:19:40.339Z,9.50
2019-03-08T09:22:11.761Z,9.60
2019-03-08T09:24:49.058Z,9.50
2019-03-08T09:27:20.538Z,9.50
2019-03-08T09:29:49.142Z,9.50
2019-03-08T09:32:20.829Z,9.50
2019-03-08T09:34:52.165Z,9.30
2019-03-08T09:37:23.334Z,9.20
2019-03-08T09:40:07.106Z,8.90
2019-03-08T09:42:47.783Z,8.80
2019-03-08T09:45:25.254Z,8.80
2019-03-08T09:47:56.692Z,8.70
2019-03-08T09:50:26.519Z,8.70
2019-03-08T09:52:55.425Z,8.60
2019-03-08T09:55:26.974Z,8.70
2019-03-08T09:58:04.626Z,8.90
2019-03-08T10:00:41.973Z,9.10
2019-03-08T10:03:10.606Z,9.30
2019-03-08T10:05:39.205Z,9.50
2019-03-08T10:08:07.845Z,9.50
2019-03-08T10:10:36.461Z,9.50
2019-03-08T10:13:05.089Z,9.40
2019-03-08T10:15:33.679Z,9.40
2019-03-08T10:18:05.350Z,9.30
2019-03-08T10:20:33.940Z,9.30
2019-03-08T10:23:02.646Z,9.40
2019-03-08T10:25:37.210Z,9.40
2019-03-08T10:28:17.949Z,9.40
2019-03-08T10:30:46.587Z,9.30
2019-03-08T10:33:17.999Z,9.50
2019-03-08T10:36:03.282Z,9.70
2019-03-08T10:38:40.887Z,9.60
2019-03-08T10:41:21.834Z,9.50
2019-03-08T10:43:56.329Z,9.80
2019-03-08T10:46:41.654Z,10.10
2019-03-08T10:49:16.084Z,10.50
2019-03-08T10:51:53.274Z,10.50
2019-03-08T10:54:39.410Z,10.30
2019-03-08T10:57:08.045Z,10.20
2019-03-08T10:59:42.700Z,10.30
2019-03-08T11:02:11.337Z,10.40
2019-03-08T11:04:39.969Z,10.50
2019-03-08T11:07:08.575Z,10.50
2019-03-08T11:09:39.829Z,10.50
2019-03-08T11:12:08.434Z,10.40
2019-03-08T11:14:49.341Z,10.70
2019-03-08T11:17:17.972Z,10.90
2019-03-08T11:20:01.780Z,10.70
2019-03-08T11:22:30.414Z,10.50
2019-03-08T11:25:07.747Z,10.40
2019-03-08T11:27:29.529Z,10.60
2019-03-08T11:29:58.165Z,10.80
2019-03-08T11:32:26.765Z,10.80
2019-03-08T11:35:12.134Z,10.70
2019-03-08T11:37:43.527Z,10.70
2019-03-08T11:40:30.309Z,10.90
2019-03-08T11:43:01.729Z,11.30
2019-03-08T11:45:30.352Z,11.40
2019-03-08T11:48:01.764Z,11.20
2019-03-08T11:50:30.345Z,11.30
2019-03-08T11:53:07.759Z,11.00
2019-03-08T11:55:42.229Z,11.00
2019-03-08T11:58:10.873Z,10.80
2019-03-08T12:00:42.542Z,10.70
2019-03-08T12:03:11.586Z,10.60
2019-03-08T12:05:56.749Z,10.70
2019-03-08T12:08:42.126Z,10.70
2019-03-08T12:11:22.235Z,10.50
2019-03-08T12:13:53.638Z,10.40
2019-03-08T12:16:22.231Z,10.40
2019-03-08T12:18:50.872Z,10.50
2019-03-08T12:21:19.458Z,10.50
2019-03-08T12:23:59.994Z,10.40
2019-03-08T12:26:45.249Z,10.30
2019-03-08T12:29:13.878Z,10.30
2019-03-08T12:31:45.144Z,10.10
2019-03-08T12:34:13.734Z,9.80
2019-03-08T12:36:59.039Z,9.60
2019-03-08T12:39:30.449Z,9.50
2019-03-08T12:42:16.245Z,9.40
2019-03-08T12:44:44.837Z,9.40
2019-03-08T12:47:13.469Z,9.50
2019-03-08T12:49:42.073Z,9.30
2019-03-08T12:52:16.771Z,9.10
2019-03-08T12:55:02.385Z,9.10
2019-03-08T12:57:31.024Z,9.20
2019-03-08T12:59:59.848Z,9.30
2019-03-08T13:02:31.580Z,9.30
2019-03-08T13:05:17.585Z,9.30
2019-03-08T13:07:46.220Z,9.30
2019-03-08T13:10:13.133Z,9.40
2019-03-08T13:12:40.414Z,9.50
2019-03-08T13:15:10.539Z,9.60
2019-03-08T13:17:37.321Z,9.70
2019-03-08T13:20:08.959Z,9.60
2019-03-08T13:22:35.789Z,9.60
2019-03-08T13:25:04.376Z,9.60
2019-03-08T13:27:31.268Z,9.50
2019-03-08T13:29:58.092Z,9.70
2019-03-08T13:32:24.884Z,9.70
2019-03-08T13:34:51.707Z,9.70
2019-03-08T13:37:18.545Z,9.60
2019-03-08T13:39:45.364Z,9.50
2019-03-08T13:42:12.149Z,9.40
2019-03-08T13:44:38.960Z,9.50
2019-03-08T13:47:05.740Z,9.50
2019-03-08T13:49:32.568Z,9.70
2019-03-08T13:51:59.484Z,9.90
2019-03-08T13:54:26.269Z,10.00
2019-03-08T13:56:53.079Z,10.10
2019-03-08T13:59:19.864Z,10.30
2019-03-08T14:01:46.684Z,10.20
2019-03-08T14:04:13.464Z,10.10
2019-03-08T14:06:40.287Z,10.00
2019-03-08T14:09:07.205Z,9.90
2019-03-08T14:11:34.005Z,10.00
2019-03-08T14:14:00.820Z,10.00
2019-03-08T14:16:27.601Z,10.00
2019-03-08T14:18:54.417Z,10.00
2019-03-08T14:21:21.249Z,10.00
2019-03-08T14:23:48.042Z,10.00
2019-03-08T14:26:14.852Z,10.10
2019-03-08T14:28:41.704Z,10.50
2019-03-08T14:31:12.484Z,10.50
2019-03-08T14:33:39.005Z,10.40
2019-03-08T14:36:07.154Z,10.30
2019-03-08T14:38:37.504Z,10.00
2019-03-08T14:41:18.507Z,9.90
2019-03-08T14:43:52.510Z,9.80
2019-03-08T14:46:21.055Z,9.80
2019-03-08T14:48:48.922Z,9.80
2019-03-08T14:51:15.709Z,9.60
2019-03-08T14:53:42.516Z,9.30
2019-03-08T14:56:09.345Z,9.40
2019-03-08T14:58:36.785Z,9.60
2019-03-08T15:01:06.294Z,9.50
2019-03-08T15:03:43.003Z,9.30
2019-03-08T15:06:01.972Z,9.20
2019-03-08T15:08:28.754Z,8.90
2019-03-08T15:10:58.097Z,8.90
2019-03-08T15:13:25.800Z,9.10
2019-03-08T15:15:52.809Z,9.30
2019-03-08T15:18:19.588Z,9.30
2019-03-08T15:20:46.419Z,9.20
2019-03-08T15:23:13.435Z,9.30
2019-03-08T15:25:45.237Z,9.20
2019-03-08T15:28:10.646Z,9.00
2019-03-08T15:30:37.648Z,8.90
2019-03-08T15:33:04.489Z,8.90
2019-03-08T15:35:31.325Z,8.90
2019-03-08T15:37:58.101Z,8.90
2019-03-08T15:40:25.860Z,9.00
2019-03-08T15:42:52.672Z,9.00
2019-03-08T15:45:19.653Z,8.90
2019-03-08T15:47:46.775Z,8.80
2019-03-08T15:50:17.900Z,8.80
2019-03-08T15:52:44.754Z,8.80
2019-03-08T15:55:11.568Z,8.90
2019-03-08T15:57:38.380Z,9.00
2019-03-08T16:00:19.761Z,8.70
2019-03-08T16:02:46.621Z,8.50
2019-03-08T16:05:15.076Z,8.40
2019-03-08T16:07:41.892Z,8.40
2019-03-08T16:10:15.386Z,8.50
2019-03-08T16:12:42.471Z,8.50
2019-03-08T16:15:10.396Z,8.40
2019-03-08T16:17:37.213Z,8.30
2019-03-08T16:20:13.428Z,8.20
2019-03-08T16:22:40.253Z,8.10
2019-03-08T16:25:09.837Z,8.00
2019-03-08T16:27:37.839Z,8.00
2019-03-08T16:30:11.725Z,7.90
2019-03-08T16:32:45.900Z,7.90
2019-03-08T16:35:12.721Z,7.70
2019-03-08T16:37:41.509Z,7.70
2019-03-08T16:40:13.153Z,7.70
2019-03-08T16:42:41.783Z,7.70
2019-03-08T16:45:28.633Z,7.70
2019-03-08T16:47:57.265Z,7.60
2019-03-08T16:50:32.178Z,7.50
2019-03-08T16:53:00.801Z,7.40
2019-03-08T16:55:41.552Z,7.20
2019-03-08T16:58:26.725Z,7.00
2019-03-08T17:01:01.186Z,6.90
2019-03-08T17:03:29.814Z,6.80
2019-03-08T17:05:58.601Z,6.80
2019-03-08T17:08:42.328Z,6.80
2019-03-08T17:11:10.925Z,6.80
2019-03-08T17:13:48.227Z,6.80
2019-03-08T17:16:25.829Z,6.80
2019-03-08T17:18:57.260Z,6.70
2019-03-08T17:21:28.500Z,6.60
2019-03-08T17:23:57.084Z,6.60
2019-03-08T17:26:34.389Z,6.50
2019-03-08T17:29:02.976Z,6.40
2019-03-08T17:31:31.642Z,6.40
2019-03-08T17:34:03.039Z,6.40
2019-03-08T17:36:32.026Z,6.40
2019-03-08T17:39:00.644Z,6.40
2019-03-08T17:41:38.564Z,6.30
2019-03-08T17:44:07.185Z,6.30
2019-03-08T17:46:54.016Z,6.20
2019-03-08T17:49:28.439Z,6.20
2019-03-08T17:52:13.600Z,6.10
2019-03-08T17:54:45.015Z,6.20
2019-03-08T17:57:19.689Z,6.10
2019-03-08T18:00:04.917Z,6.10
2019-03-08T18:02:42.998Z,6.10
2019-03-08T18:05:28.232Z,6.10
2019-03-08T18:07:59.665Z,6.00
2019-03-08T18:10:28.584Z,5.90
2019-03-08T18:12:57.385Z,5.90
2019-03-08T18:15:38.394Z,5.90
2019-03-08T18:18:22.007Z,5.80
2019-03-08T18:20:53.387Z,5.80
2019-03-08T18:23:37.182Z,5.80
2019-03-08T18:26:17.433Z,5.80
2019-03-08T18:29:04.275Z,5.70
2019-03-08T18:31:32.946Z,5.70
2019-03-08T18:34:10.341Z,5.60
2019-03-08T18:36:41.800Z,5.60
2019-03-08T18:39:10.424Z,5.60
2019-03-08T18:41:39.022Z,5.50
2019-03-08T18:44:07.652Z,5.50
2019-03-08T18:46:48.558Z,5.40
2019-03-08T18:49:17.374Z,5.40
2019-03-08T18:51:49.158Z,5.40
2019-03-08T18:54:17.809Z,5.30
2019-03-08T18:56:46.397Z,5.30
2019-03-08T18:59:20.636Z,5.30
2019-03-08T19:01:51.796Z,5.40
2019-03-08T19:04:26.372Z,5.30
2019-03-08T19:06:55.000Z,5.30
2019-03-08T19:09:23.615Z,5.40
2019-03-08T19:11:52.246Z,5.30
2019-03-08T19:14:23.596Z,5.30
2019-03-08T19:16:57.780Z,5.20
2019-03-08T19:19:44.808Z,5.10
2019-03-08T19:22:26.396Z,5.00
2019-03-08T19:25:08.201Z,5.00
2019-03-08T19:27:45.480Z,5.00
2019-03-08T19:30:33.861Z,4.90
2019-03-08T19:33:02.527Z,4.90
2019-03-08T19:35:37.185Z,4.90
2019-03-08T19:38:17.886Z,4.80
2019-03-08T19:40:55.616Z,4.70
2019-03-08T19:43:30.209Z,4.70
2019-03-08T19:45:58.832Z,4.60
2019-03-08T19:48:33.309Z,4.60
2019-03-08T19:51:10.772Z,4.60
2019-03-08T19:53:48.695Z,4.60
2019-03-08T19:56:32.526Z,4.50
2019-03-08T19:59:01.152Z,4.40
2019-03-08T20:01:47.889Z,4.30
2019-03-08T20:04:19.320Z,4.30
2019-03-08T20:06:51.244Z,4.20
2019-03-08T20:09:35.116Z,4.20
2019-03-08T20:12:03.752Z,4.20
2019-03-08T20:14:44.444Z,4.10
2019-03-08T20:17:16.313Z,4.00
2019-03-08T20:19:44.937Z,4.00
2019-03-08T20:22:30.429Z,3.90
2019-03-08T20:25:17.284Z,3.90
2019-03-08T20:27:48.716Z,3.90
2019-03-08T20:30:17.300Z,3.90
2019-03-08T20:32:58.396Z,3.90
2019-03-08T20:35:32.909Z,3.90
2019-03-08T20:38:01.571Z,3.90
2019-03-08T20:40:45.581Z,3.90
2019-03-08T20:43:17.745Z,3.90
2019-03-08T20:45:46.376Z,3.90
2019-03-08T20:48:13.182Z,4.00
2019-03-08T20:50:40.021Z,4.10
2019-03-08T20:53:08.616Z,4.10
2019-03-08T20:55:35.444Z,4.10
2019-03-08T20:58:02.248Z,4.10
2019-03-08T21:00:29.087Z,4.10
2019-03-08T21:02:55.874Z,4.10
2019-03-08T21:05:22.889Z,4.20
2019-03-08T21:07:49.694Z,4.10
2019-03-08T21:10:16.513Z,4.00
2019-03-08T21:12:43.714Z,4.00
2019-03-08T21:15:11.863Z,4.00
2019-03-08T21:17:39.208Z,4.10
2019-03-08T21:20:09.537Z,4.10
2019-03-08T21:22:36.459Z,4.20
2019-03-08T21:25:06.853Z,4.20
2019-03-08T21:27:33.819Z,4.20
2019-03-08T21:30:00.756Z,4.30
2019-03-08T21:32:27.877Z,4.30
2019-03-08T21:34:54.876Z,4.20
2019-03-08T21:37:21.851Z,4.20
2019-03-08T21:39:48.617Z,4.10
2019-03-08T21:42:15.645Z,4.10
2019-03-08T21:44:42.518Z,4.00
2019-03-08T21:47:09.452Z,4.00
2019-03-08T21:49:36.337Z,3.90
2019-03-08T21:52:03.365Z,3.90
2019-03-08T21:54:30.161Z,3.90
2019-03-08T21:56:57.307Z,3.90
2019-03-08T21:59:24.103Z,3.90
2019-03-08T22:01:50.930Z,3.90
2019-03-08T22:04:22.317Z,3.90
2019-03-08T22:06:49.137Z,4.00
2019-03-08T22:09:20.758Z,4.10
2019-03-08T22:11:48.076Z,4.10
2019-03-08T22:14:14.859Z,4.20
2019-03-08T22:16:41.690Z,4.30
2019-03-08T22:19:08.515Z,4.30
2019-03-08T22:21:35.308Z,4.30
2019-03-08T22:24:02.141Z,4.20
2019-03-08T22:26:29.274Z,4.10
2019-03-08T22:28:56.154Z,4.10
2019-03-08T22:31:22.942Z,4.10
2019-03-08T22:33:49.804Z,4.10
2019-03-08T22:36:16.633Z,4.20
2019-03-08T22:38:43.434Z,4.20
2019-03-08T22:41:10.293Z,4.20
2019-03-08T22:43:37.097Z,4.30
2019-03-08T22:46:03.940Z,4.40
2019-03-08T22:48:30.769Z,4.50
2019-03-08T22:50:57.545Z,4.40
2019-03-08T22:53:24.374Z,4.50
2019-03-08T22:55:51.153Z,4.50
2019-03-08T22:58:18.213Z,4.50
2019-03-08T23:00:58.542Z,4.50
2019-03-08T23:03:25.357Z,4.40
2019-03-08T23:05:52.182Z,4.30
2019-03-08T23:08:18.957Z,4.30
2019-03-08T23:10:46.094Z,4.30
2019-03-08T23:13:12.877Z,4.30
2019-03-08T23:15:39.700Z,4.30
2019-03-08T23:18:06.476Z,4.20
2019-03-08T23:20:36.581Z,4.10
2019-03-08T23:23:03.401Z,4.10
2019-03-08T23:25:30.505Z,4.20
2019-03-08T23:28:15.769Z,4.20
2019-03-08T23:30:42.577Z,4.10
2019-03-08T23:33:09.425Z,4.20
2019-03-08T23:35:36.582Z,4.20
2019-03-08T23:38:03.364Z,4.20
2019-03-08T23:40:30.189Z,4.40
2019-03-08T23:42:57.127Z,4.60
2019-03-08T23:45:23.921Z,4.40
2019-03-08T23:47:50.734Z,4.40
2019-03-08T23:50:18.808Z,4.40
2019-03-08T23:52:45.846Z,4.30
2019-03-08T23:55:12.672Z,4.30
2019-03-08T23:57:39.725Z,4.40
